sensor_id;sensor_type;location;lat;lon;timestamp;P1;durP1;ratioP1;P2;durP2;ratioP2
71490;SDS011;59307;50.060;9.150;2023-01-10T00:02:05;2.90;;;1.23;;
71490;SDS011;59307;50.060;9.150;2023-01-10T00:04:30;2.10;;;1.30;;
71490;SDS011;59307;50.060;9.150;2023-01-10T00:06:55;4.47;;;1.33;;
71490;SDS011;59307;50.060;9.150;2023-01-10T00:09:20;2.60;;;1.10;;
71490;SDS011;59307;50.060;9.150;2023-01-10T00:11:45;3.23;;;1.50;;
71490;SDS011;59307;50.060;9.150;2023-01-10T00:14:29;3.75;;;1.40;;
71490;SDS011;59307;50.060;9.150;2023-01-10T00:16:57;2.10;;;1.08;;
71490;SDS011;59307;50.060;9.150;2023-01-10T00:19:22;6.40;;;1.67;;
71490;SDS011;59307;50.060;9.150;2023-01-10T00:21:47;3.93;;;1.40;;
71490;SDS011;59307;50.060;9.150;2023-01-10T00:24:13;3.10;;;1.50;;
71490;SDS011;59307;50.060;9.150;2023-01-10T00:26:45;3.80;;;1.50;;
71490;SDS011;59307;50.060;9.150;2023-01-10T00:29:14;2.88;;;1.30;;
71490;SDS011;59307;50.060;9.150;2023-01-10T00:31:40;2.27;;;1.30;;
71490;SDS011;59307;50.060;9.150;2023-01-10T00:34:05;5.57;;;1.43;;
71490;SDS011;59307;50.060;9.150;2023-01-10T00:36:31;4.65;;;1.60;;
71490;SDS011;59307;50.060;9.150;2023-01-10T00:38:56;5.70;;;1.30;;
71490;SDS011;59307;50.060;9.150;2023-01-10T00:41:22;2.38;;;1.20;;
71490;SDS011;59307;50.060;9.150;2023-01-10T00:44:05;2.93;;;1.50;;
71490;SDS011;59307;50.060;9.150;2023-01-10T00:46:31;4.37;;;1.63;;
71490;SDS011;59307;50.060;9.150;2023-01-10T00:48:56;2.73;;;1.60;;
71490;SDS011;59307;50.060;9.150;2023-01-10T00:51:21;3.90;;;1.60;;
71490;SDS011;59307;50.060;9.150;2023-01-10T00:53:46;2.40;;;1.50;;
71490;SDS011;59307;50.060;9.150;2023-01-10T00:56:11;3.23;;;1.50;;
71490;SDS011;59307;50.060;9.150;2023-01-10T00:58:37;4.30;;;1.60;;
71490;SDS011;59307;50.060;9.150;2023-01-10T01:01:02;4.53;;;1.40;;
71490;SDS011;59307;50.060;9.150;2023-01-10T01:03:27;3.03;;;1.47;;
71490;SDS011;59307;50.060;9.150;2023-01-10T01:05:52;4.22;;;1.63;;
71490;SDS011;59307;50.060;9.150;2023-01-10T01:08:18;3.57;;;1.40;;
71490;SDS011;59307;50.060;9.150;2023-01-10T01:10:44;2.87;;;1.50;;
71490;SDS011;59307;50.060;9.150;2023-01-10T01:13:11;2.33;;;1.25;;
71490;SDS011;59307;50.060;9.150;2023-01-10T01:15:36;7.03;;;1.63;;
71490;SDS011;59307;50.060;9.150;2023-01-10T01:18:02;5.10;;;1.43;;
71490;SDS011;59307;50.060;9.150;2023-01-10T01:20:27;3.43;;;1.50;;
71490;SDS011;59307;50.060;9.150;2023-01-10T01:22:53;3.05;;;1.30;;
71490;SDS011;59307;50.060;9.150;2023-01-10T01:25:18;3.30;;;1.45;;
71490;SDS011;59307;50.060;9.150;2023-01-10T01:27:43;4.00;;;1.50;;
71490;SDS011;59307;50.060;9.150;2023-01-10T01:30:09;3.67;;;1.50;;
71490;SDS011;59307;50.060;9.150;2023-01-10T01:32:34;3.27;;;1.47;;
71490;SDS011;59307;50.060;9.150;2023-01-10T01:35:00;4.97;;;1.50;;
71490;SDS011;59307;50.060;9.150;2023-01-10T01:37:25;3.77;;;1.40;;
71490;SDS011;59307;50.060;9.150;2023-01-10T01:39:50;3.05;;;1.20;;
71490;SDS011;59307;50.060;9.150;2023-01-10T01:45:19;4.43;;;1.20;;
71490;SDS011;59307;50.060;9.150;2023-01-10T01:47:53;4.40;;;1.15;;
71490;SDS011;59307;50.060;9.150;2023-01-10T01:52:44;1.97;;;1.10;;
71490;SDS011;59307;50.060;9.150;2023-01-10T01:55:11;3.25;;;1.30;;
71490;SDS011;59307;50.060;9.150;2023-01-10T01:57:36;6.43;;;1.63;;
71490;SDS011;59307;50.060;9.150;2023-01-10T02:00:03;3.57;;;1.70;;
71490;SDS011;59307;50.060;9.150;2023-01-10T02:02:30;3.13;;;1.20;;
71490;SDS011;59307;50.060;9.150;2023-01-10T02:05:04;3.22;;;1.42;;
71490;SDS011;59307;50.060;9.150;2023-01-10T02:07:33;6.47;;;1.37;;
71490;SDS011;59307;50.060;9.150;2023-01-10T02:12:35;4.07;;;1.52;;
71490;SDS011;59307;50.060;9.150;2023-01-10T02:15:02;3.70;;;1.33;;
71490;SDS011;59307;50.060;9.150;2023-01-10T02:17:27;3.60;;;1.40;;
71490;SDS011;59307;50.060;9.150;2023-01-10T02:20:04;4.03;;;1.70;;
71490;SDS011;59307;50.060;9.150;2023-01-10T02:33:15;4.67;;;1.60;;
71490;SDS011;59307;50.060;9.150;2023-01-10T02:40:46;3.85;;;1.70;;
71490;SDS011;59307;50.060;9.150;2023-01-10T02:43:14;4.60;;;1.50;;
71490;SDS011;59307;50.060;9.150;2023-01-10T02:48:07;2.40;;;1.20;;
71490;SDS011;59307;50.060;9.150;2023-01-10T02:50:39;2.60;;;1.40;;
71490;SDS011;59307;50.060;9.150;2023-01-10T02:53:08;3.20;;;1.50;;
71490;SDS011;59307;50.060;9.150;2023-01-10T02:58:10;5.65;;;1.58;;
71490;SDS011;59307;50.060;9.150;2023-01-10T03:03:32;3.58;;;1.40;;
71490;SDS011;59307;50.060;9.150;2023-01-10T03:11:00;2.47;;;1.20;;
71490;SDS011;59307;50.060;9.150;2023-01-10T03:14:10;3.67;;;1.65;;
71490;SDS011;59307;50.060;9.150;2023-01-10T03:16:16;2.90;;;1.17;;
71490;SDS011;59307;50.060;9.150;2023-01-10T03:18:46;2.22;;;1.20;;
71490;SDS011;59307;50.060;9.150;2023-01-10T03:21:12;4.80;;;1.60;;
71490;SDS011;59307;50.060;9.150;2023-01-10T03:23:38;2.88;;;1.30;;
71490;SDS011;59307;50.060;9.150;2023-01-10T03:26:04;5.55;;;1.52;;
71490;SDS011;59307;50.060;9.150;2023-01-10T03:28:36;2.63;;;1.50;;
71490;SDS011;59307;50.060;9.150;2023-01-10T03:31:04;5.78;;;1.77;;
71490;SDS011;59307;50.060;9.150;2023-01-10T03:33:31;2.55;;;1.50;;
71490;SDS011;59307;50.060;9.150;2023-01-10T03:38:45;2.53;;;1.30;;
71490;SDS011;59307;50.060;9.150;2023-01-10T03:41:12;2.27;;;1.40;;
71490;SDS011;59307;50.060;9.150;2023-01-10T03:43:46;2.78;;;1.50;;
71490;SDS011;59307;50.060;9.150;2023-01-10T03:46:34;2.97;;;1.27;;
71490;SDS011;59307;50.060;9.150;2023-01-10T03:49:02;3.22;;;1.30;;
71490;SDS011;59307;50.060;9.150;2023-01-10T03:51:27;4.82;;;1.52;;
71490;SDS011;59307;50.060;9.150;2023-01-10T03:53:53;2.03;;;0.97;;
71490;SDS011;59307;50.060;9.150;2023-01-10T03:56:18;3.57;;;1.33;;
71490;SDS011;59307;50.060;9.150;2023-01-10T03:58:43;3.87;;;1.50;;
71490;SDS011;59307;50.060;9.150;2023-01-10T04:01:08;2.40;;;1.00;;
71490;SDS011;59307;50.060;9.150;2023-01-10T04:03:34;3.73;;;1.30;;
71490;SDS011;59307;50.060;9.150;2023-01-10T04:05:59;3.10;;;1.20;;
71490;SDS011;59307;50.060;9.150;2023-01-10T04:08:24;4.17;;;1.20;;
71490;SDS011;59307;50.060;9.150;2023-01-10T04:10:50;4.63;;;0.93;;
71490;SDS011;59307;50.060;9.150;2023-01-10T04:13:15;1.60;;;1.10;;
71490;SDS011;59307;50.060;9.150;2023-01-10T04:15:40;3.43;;;1.17;;
71490;SDS011;59307;50.060;9.150;2023-01-10T04:18:05;4.07;;;1.30;;
71490;SDS011;59307;50.060;9.150;2023-01-10T04:20:30;3.67;;;0.87;;
71490;SDS011;59307;50.060;9.150;2023-01-10T04:22:56;2.97;;;1.23;;
71490;SDS011;59307;50.060;9.150;2023-01-10T04:25:21;4.40;;;1.20;;
71490;SDS011;59307;50.060;9.150;2023-01-10T04:27:49;2.67;;;1.60;;
71490;SDS011;59307;50.060;9.150;2023-01-10T04:30:15;2.90;;;1.30;;
71490;SDS011;59307;50.060;9.150;2023-01-10T04:32:41;2.35;;;0.90;;
71490;SDS011;59307;50.060;9.150;2023-01-10T04:35:06;4.57;;;1.20;;
71490;SDS011;59307;50.060;9.150;2023-01-10T04:37:31;4.43;;;1.00;;
71490;SDS011;59307;50.060;9.150;2023-01-10T04:39:56;3.63;;;1.20;;
71490;SDS011;59307;50.060;9.150;2023-01-10T04:42:21;2.47;;;1.10;;
71490;SDS011;59307;50.060;9.150;2023-01-10T04:44:47;2.37;;;1.10;;
71490;SDS011;59307;50.060;9.150;2023-01-10T04:47:12;4.03;;;1.20;;
71490;SDS011;59307;50.060;9.150;2023-01-10T04:49:37;3.73;;;1.10;;
71490;SDS011;59307;50.060;9.150;2023-01-10T04:52:03;4.77;;;1.17;;
71490;SDS011;59307;50.060;9.150;2023-01-10T04:54:28;5.87;;;1.30;;
71490;SDS011;59307;50.060;9.150;2023-01-10T04:56:53;4.00;;;1.20;;
71490;SDS011;59307;50.060;9.150;2023-01-10T04:59:18;5.17;;;1.20;;
71490;SDS011;59307;50.060;9.150;2023-01-10T05:01:44;5.13;;;1.40;;
71490;SDS011;59307;50.060;9.150;2023-01-10T05:04:09;4.17;;;1.17;;
71490;SDS011;59307;50.060;9.150;2023-01-10T05:06:34;2.93;;;1.10;;
71490;SDS011;59307;50.060;9.150;2023-01-10T05:08:59;5.73;;;1.30;;
71490;SDS011;59307;50.060;9.150;2023-01-10T05:11:25;4.27;;;1.30;;
71490;SDS011;59307;50.060;9.150;2023-01-10T05:13:50;5.97;;;1.40;;
71490;SDS011;59307;50.060;9.150;2023-01-10T05:16:15;4.27;;;1.50;;
71490;SDS011;59307;50.060;9.150;2023-01-10T05:18:40;5.93;;;1.40;;
71490;SDS011;59307;50.060;9.150;2023-01-10T05:21:07;4.37;;;1.30;;
71490;SDS011;59307;50.060;9.150;2023-01-10T05:23:32;2.70;;;1.35;;
71490;SDS011;59307;50.060;9.150;2023-01-10T05:26:03;10.07;;;1.80;;
71490;SDS011;59307;50.060;9.150;2023-01-10T05:28:29;6.40;;;1.40;;
71490;SDS011;59307;50.060;9.150;2023-01-10T05:30:54;7.33;;;1.70;;
71490;SDS011;59307;50.060;9.150;2023-01-10T05:33:19;6.87;;;1.93;;
71490;SDS011;59307;50.060;9.150;2023-01-10T05:35:44;8.17;;;1.90;;
71490;SDS011;59307;50.060;9.150;2023-01-10T05:38:09;4.70;;;1.47;;
71490;SDS011;59307;50.060;9.150;2023-01-10T05:40:35;7.47;;;2.00;;
71490;SDS011;59307;50.060;9.150;2023-01-10T05:43:00;7.43;;;1.90;;
71490;SDS011;59307;50.060;9.150;2023-01-10T05:45:25;9.30;;;2.10;;
71490;SDS011;59307;50.060;9.150;2023-01-10T05:47:50;7.73;;;2.10;;
71490;SDS011;59307;50.060;9.150;2023-01-10T05:50:15;7.27;;;2.20;;
71490;SDS011;59307;50.060;9.150;2023-01-10T05:52:41;11.50;;;3.03;;
71490;SDS011;59307;50.060;9.150;2023-01-10T05:55:06;6.63;;;2.90;;
71490;SDS011;59307;50.060;9.150;2023-01-10T05:57:31;7.20;;;2.37;;
71490;SDS011;59307;50.060;9.150;2023-01-10T05:59:56;10.77;;;2.27;;
71490;SDS011;59307;50.060;9.150;2023-01-10T06:02:22;7.90;;;2.50;;
71490;SDS011;59307;50.060;9.150;2023-01-10T06:04:47;9.37;;;2.37;;
71490;SDS011;59307;50.060;9.150;2023-01-10T06:07:12;10.40;;;4.57;;
71490;SDS011;59307;50.060;9.150;2023-01-10T06:09:37;19.00;;;7.13;;
71490;SDS011;59307;50.060;9.150;2023-01-10T06:12:03;15.03;;;2.40;;
71490;SDS011;59307;50.060;9.150;2023-01-10T06:14:28;18.03;;;4.73;;
71490;SDS011;59307;50.060;9.150;2023-01-10T06:16:53;10.27;;;2.50;;
71490;SDS011;59307;50.060;9.150;2023-01-10T06:19:18;10.13;;;2.97;;
71490;SDS011;59307;50.060;9.150;2023-01-10T06:21:43;6.10;;;2.10;;
71490;SDS011;59307;50.060;9.150;2023-01-10T06:24:09;7.37;;;2.63;;
71490;SDS011;59307;50.060;9.150;2023-01-10T06:26:34;6.90;;;2.60;;
71490;SDS011;59307;50.060;9.150;2023-01-10T06:28:59;6.97;;;2.30;;
71490;SDS011;59307;50.060;9.150;2023-01-10T06:31:25;8.53;;;2.43;;
71490;SDS011;59307;50.060;9.150;2023-01-10T06:33:50;9.20;;;2.28;;
71490;SDS011;59307;50.060;9.150;2023-01-10T06:36:15;7.97;;;2.30;;
71490;SDS011;59307;50.060;9.150;2023-01-10T06:38:41;10.37;;;3.30;;
71490;SDS011;59307;50.060;9.150;2023-01-10T06:41:06;10.47;;;3.00;;
71490;SDS011;59307;50.060;9.150;2023-01-10T06:43:44;10.70;;;2.60;;
71490;SDS011;59307;50.060;9.150;2023-01-10T06:46:09;11.83;;;2.50;;
71490;SDS011;59307;50.060;9.150;2023-01-10T06:48:35;5.75;;;2.30;;
71490;SDS011;59307;50.060;9.150;2023-01-10T06:51:01;13.13;;;2.65;;
71490;SDS011;59307;50.060;9.150;2023-01-10T06:53:26;12.10;;;3.33;;
71490;SDS011;59307;50.060;9.150;2023-01-10T06:55:53;9.10;;;3.10;;
71490;SDS011;59307;50.060;9.150;2023-01-10T06:58:18;10.80;;;2.58;;
71490;SDS011;59307;50.060;9.150;2023-01-10T07:00:43;8.20;;;2.60;;
71490;SDS011;59307;50.060;9.150;2023-01-10T07:03:08;12.30;;;2.63;;
71490;SDS011;59307;50.060;9.150;2023-01-10T07:05:33;6.47;;;2.00;;
71490;SDS011;59307;50.060;9.150;2023-01-10T07:07:59;6.20;;;2.07;;
71490;SDS011;59307;50.060;9.150;2023-01-10T07:10:25;9.63;;;2.45;;
71490;SDS011;59307;50.060;9.150;2023-01-10T07:12:50;7.90;;;2.10;;
71490;SDS011;59307;50.060;9.150;2023-01-10T07:15:18;7.20;;;2.20;;
71490;SDS011;59307;50.060;9.150;2023-01-10T07:17:43;9.17;;;2.90;;
71490;SDS011;59307;50.060;9.150;2023-01-10T07:20:08;5.40;;;2.00;;
71490;SDS011;59307;50.060;9.150;2023-01-10T07:22:34;9.13;;;2.33;;
71490;SDS011;59307;50.060;9.150;2023-01-10T07:24:59;12.13;;;2.13;;
71490;SDS011;59307;50.060;9.150;2023-01-10T07:27:24;7.93;;;2.17;;
71490;SDS011;59307;50.060;9.150;2023-01-10T07:29:49;9.23;;;2.20;;
71490;SDS011;59307;50.060;9.150;2023-01-10T07:32:14;11.53;;;2.30;;
71490;SDS011;59307;50.060;9.150;2023-01-10T07:34:39;6.00;;;2.10;;
71490;SDS011;59307;50.060;9.150;2023-01-10T07:37:05;6.63;;;2.50;;
71490;SDS011;59307;50.060;9.150;2023-01-10T07:39:30;10.60;;;3.40;;
71490;SDS011;59307;50.060;9.150;2023-01-10T07:41:55;11.20;;;3.00;;
71490;SDS011;59307;50.060;9.150;2023-01-10T07:44:20;8.53;;;2.40;;
71490;SDS011;59307;50.060;9.150;2023-01-10T07:46:46;5.95;;;2.17;;
71490;SDS011;59307;50.060;9.150;2023-01-10T07:49:11;11.77;;;2.30;;
71490;SDS011;59307;50.060;9.150;2023-01-10T07:51:38;4.82;;;1.90;;
71490;SDS011;59307;50.060;9.150;2023-01-10T07:54:03;4.23;;;1.43;;
71490;SDS011;59307;50.060;9.150;2023-01-10T07:56:28;8.20;;;1.90;;
71490;SDS011;59307;50.060;9.150;2023-01-10T07:58:53;4.43;;;1.90;;
71490;SDS011;59307;50.060;9.150;2023-01-10T08:01:18;7.57;;;1.90;;
71490;SDS011;59307;50.060;9.150;2023-01-10T08:03:44;13.60;;;2.23;;
71490;SDS011;59307;50.060;9.150;2023-01-10T08:06:09;8.60;;;1.77;;
71490;SDS011;59307;50.060;9.150;2023-01-10T08:08:35;11.02;;;2.88;;
71490;SDS011;59307;50.060;9.150;2023-01-10T08:11:00;7.40;;;2.13;;
71490;SDS011;59307;50.060;9.150;2023-01-10T08:13:26;11.55;;;2.42;;
71490;SDS011;59307;50.060;9.150;2023-01-10T08:15:52;9.83;;;2.17;;
71490;SDS011;59307;50.060;9.150;2023-01-10T08:18:18;7.93;;;2.27;;
71490;SDS011;59307;50.060;9.150;2023-01-10T08:20:43;7.15;;;2.03;;
71490;SDS011;59307;50.060;9.150;2023-01-10T08:23:11;11.77;;;2.28;;
71490;SDS011;59307;50.060;9.150;2023-01-10T08:25:36;7.00;;;1.90;;
71490;SDS011;59307;50.060;9.150;2023-01-10T08:28:01;8.97;;;2.23;;
71490;SDS011;59307;50.060;9.150;2023-01-10T08:30:26;10.70;;;2.30;;
71490;SDS011;59307;50.060;9.150;2023-01-10T08:32:52;8.10;;;2.30;;
71490;SDS011;59307;50.060;9.150;2023-01-10T08:35:17;6.73;;;1.83;;
71490;SDS011;59307;50.060;9.150;2023-01-10T08:37:42;25.40;;;6.40;;
71490;SDS011;59307;50.060;9.150;2023-01-10T08:40:07;13.93;;;2.90;;
71490;SDS011;59307;50.060;9.150;2023-01-10T08:42:33;11.97;;;2.43;;
71490;SDS011;59307;50.060;9.150;2023-01-10T08:44:58;6.47;;;1.85;;
71490;SDS011;59307;50.060;9.150;2023-01-10T08:47:24;13.48;;;1.98;;
71490;SDS011;59307;50.060;9.150;2023-01-10T08:49:50;7.53;;;2.00;;
71490;SDS011;59307;50.060;9.150;2023-01-10T08:52:15;13.13;;;2.20;;
71490;SDS011;59307;50.060;9.150;2023-01-10T08:54:40;11.57;;;2.33;;
71490;SDS011;59307;50.060;9.150;2023-01-10T08:57:05;8.93;;;2.37;;
71490;SDS011;59307;50.060;9.150;2023-01-10T08:59:31;11.57;;;2.20;;
71490;SDS011;59307;50.060;9.150;2023-01-10T09:01:56;11.23;;;2.43;;
71490;SDS011;59307;50.060;9.150;2023-01-10T09:04:22;12.57;;;2.60;;
71490;SDS011;59307;50.060;9.150;2023-01-10T09:06:47;13.27;;;2.90;;
71490;SDS011;59307;50.060;9.150;2023-01-10T09:09:13;12.07;;;2.30;;
71490;SDS011;59307;50.060;9.150;2023-01-10T09:11:38;14.40;;;3.10;;
71490;SDS011;59307;50.060;9.150;2023-01-10T09:14:03;15.20;;;3.30;;
71490;SDS011;59307;50.060;9.150;2023-01-10T09:16:30;9.80;;;2.63;;
71490;SDS011;59307;50.060;9.150;2023-01-10T09:18:56;10.40;;;2.80;;
71490;SDS011;59307;50.060;9.150;2023-01-10T09:21:21;12.23;;;2.93;;
71490;SDS011;59307;50.060;9.150;2023-01-10T09:23:46;15.97;;;3.00;;
71490;SDS011;59307;50.060;9.150;2023-01-10T09:26:11;14.73;;;2.97;;
71490;SDS011;59307;50.060;9.150;2023-01-10T09:28:36;13.10;;;3.00;;
71490;SDS011;59307;50.060;9.150;2023-01-10T09:31:02;9.83;;;2.87;;
71490;SDS011;59307;50.060;9.150;2023-01-10T09:33:28;19.13;;;3.90;;
71490;SDS011;59307;50.060;9.150;2023-01-10T09:35:55;12.00;;;2.87;;
71490;SDS011;59307;50.060;9.150;2023-01-10T09:38:21;8.48;;;3.08;;
71490;SDS011;59307;50.060;9.150;2023-01-10T09:53:48;15.27;;;2.55;;
71490;SDS011;59307;50.060;9.150;2023-01-10T09:56:14;11.10;;;2.58;;
71490;SDS011;59307;50.060;9.150;2023-01-10T09:58:39;14.20;;;3.20;;
71490;SDS011;59307;50.060;9.150;2023-01-10T10:01:07;13.73;;;3.05;;
71490;SDS011;59307;50.060;9.150;2023-01-10T10:06:15;12.98;;;2.80;;
71490;SDS011;59307;50.060;9.150;2023-01-10T10:08:41;14.20;;;3.70;;
71490;SDS011;59307;50.060;9.150;2023-01-10T10:13:46;14.00;;;2.65;;
71490;SDS011;59307;50.060;9.150;2023-01-10T10:18:54;11.27;;;2.20;;
71490;SDS011;59307;50.060;9.150;2023-01-10T10:23:57;10.20;;;2.10;;
71490;SDS011;59307;50.060;9.150;2023-01-10T10:26:32;9.60;;;1.87;;
71490;SDS011;59307;50.060;9.150;2023-01-10T10:31:52;10.48;;;1.80;;
71490;SDS011;59307;50.060;9.150;2023-01-10T10:36:54;13.60;;;2.47;;
71490;SDS011;59307;50.060;9.150;2023-01-10T10:39:21;8.60;;;1.83;;
71490;SDS011;59307;50.060;9.150;2023-01-10T10:41:48;8.67;;;1.77;;
71490;SDS011;59307;50.060;9.150;2023-01-10T10:46:41;10.18;;;1.80;;
71490;SDS011;59307;50.060;9.150;2023-01-10T10:49:17;7.53;;;1.63;;
71490;SDS011;59307;50.060;9.150;2023-01-10T10:51:46;10.82;;;2.40;;
71490;SDS011;59307;50.060;9.150;2023-01-10T10:54:14;11.18;;;1.65;;
71490;SDS011;59307;50.060;9.150;2023-01-10T10:56:40;13.20;;;2.20;;
71490;SDS011;59307;50.060;9.150;2023-01-10T10:59:06;9.73;;;1.80;;
71490;SDS011;59307;50.060;9.150;2023-01-10T11:01:32;9.90;;;1.80;;
71490;SDS011;59307;50.060;9.150;2023-01-10T11:03:58;8.97;;;1.60;;
71490;SDS011;59307;50.060;9.150;2023-01-10T11:06:24;8.90;;;1.42;;
71490;SDS011;59307;50.060;9.150;2023-01-10T11:08:52;7.93;;;1.63;;
71490;SDS011;59307;50.060;9.150;2023-01-10T11:13:57;7.22;;;1.40;;
71490;SDS011;59307;50.060;9.150;2023-01-10T11:21:34;10.23;;;1.58;;
71490;SDS011;59307;50.060;9.150;2023-01-10T11:24:00;9.73;;;1.87;;
71490;SDS011;59307;50.060;9.150;2023-01-10T11:26:26;6.63;;;1.53;;
71490;SDS011;59307;50.060;9.150;2023-01-10T11:28:54;7.15;;;1.50;;
71490;SDS011;59307;50.060;9.150;2023-01-10T11:31:27;8.32;;;2.20;;
71490;SDS011;59307;50.060;9.150;2023-01-10T11:33:53;12.18;;;1.83;;
71490;SDS011;59307;50.060;9.150;2023-01-10T11:36:18;9.40;;;1.70;;
71490;SDS011;59307;50.060;9.150;2023-01-10T11:38:44;11.57;;;2.20;;
71490;SDS011;59307;50.060;9.150;2023-01-10T11:41:23;12.65;;;1.88;;
71490;SDS011;59307;50.060;9.150;2023-01-10T11:43:49;12.47;;;2.17;;
71490;SDS011;59307;50.060;9.150;2023-01-10T11:46:15;6.83;;;1.63;;
71490;SDS011;59307;50.060;9.150;2023-01-10T11:48:44;10.68;;;2.03;;
71490;SDS011;59307;50.060;9.150;2023-01-10T11:51:21;13.07;;;3.00;;
71490;SDS011;59307;50.060;9.150;2023-01-10T11:53:48;11.82;;;1.70;;
71490;SDS011;59307;50.060;9.150;2023-01-10T11:56:23;9.52;;;2.03;;
71490;SDS011;59307;50.060;9.150;2023-01-10T11:58:48;9.57;;;1.80;;
71490;SDS011;59307;50.060;9.150;2023-01-10T12:01:23;8.60;;;1.47;;
71490;SDS011;59307;50.060;9.150;2023-01-10T12:03:49;9.43;;;2.00;;
71490;SDS011;59307;50.060;9.150;2023-01-10T12:06:15;14.60;;;2.00;;
71490;SDS011;59307;50.060;9.150;2023-01-10T12:08:41;10.93;;;1.83;;
71490;SDS011;59307;50.060;9.150;2023-01-10T12:13:51;7.33;;;1.77;;
71490;SDS011;59307;50.060;9.150;2023-01-10T12:18:41;16.40;;;2.47;;
71490;SDS011;59307;50.060;9.150;2023-01-10T12:21:07;8.47;;;1.80;;
71490;SDS011;59307;50.060;9.150;2023-01-10T12:23:33;12.43;;;2.35;;
71490;SDS011;59307;50.060;9.150;2023-01-10T12:26:04;8.85;;;1.83;;
71490;SDS011;59307;50.060;9.150;2023-01-10T12:28:30;12.32;;;2.63;;
71490;SDS011;59307;50.060;9.150;2023-01-10T12:30:57;12.03;;;2.40;;
71490;SDS011;59307;50.060;9.150;2023-01-10T12:33:24;12.13;;;2.05;;
71490;SDS011;59307;50.060;9.150;2023-01-10T12:40:44;10.00;;;2.05;;
71490;SDS011;59307;50.060;9.150;2023-01-10T12:43:13;10.77;;;2.03;;
71490;SDS011;59307;50.060;9.150;2023-01-10T12:45:58;12.82;;;2.40;;
71490;SDS011;59307;50.060;9.150;2023-01-10T12:48:44;17.15;;;2.20;;
71490;SDS011;59307;50.060;9.150;2023-01-10T12:51:11;11.48;;;2.17;;
71490;SDS011;59307;50.060;9.150;2023-01-10T12:53:39;10.40;;;2.13;;
71490;SDS011;59307;50.060;9.150;2023-01-10T12:56:08;11.97;;;2.60;;
71490;SDS011;59307;50.060;9.150;2023-01-10T12:58:54;13.18;;;2.40;;
71490;SDS011;59307;50.060;9.150;2023-01-10T13:01:23;11.30;;;2.00;;
71490;SDS011;59307;50.060;9.150;2023-01-10T13:03:55;16.27;;;3.05;;
71490;SDS011;59307;50.060;9.150;2023-01-10T13:06:32;12.82;;;1.90;;
71490;SDS011;59307;50.060;9.150;2023-01-10T13:08:58;7.70;;;1.70;;
71490;SDS011;59307;50.060;9.150;2023-01-10T13:11:24;12.07;;;2.40;;
71490;SDS011;59307;50.060;9.150;2023-01-10T13:13:52;13.32;;;2.30;;
71490;SDS011;59307;50.060;9.150;2023-01-10T13:21:28;10.93;;;2.90;;
71490;SDS011;59307;50.060;9.150;2023-01-10T13:23:58;12.60;;;2.60;;
71490;SDS011;59307;50.060;9.150;2023-01-10T13:26:24;14.25;;;2.95;;
71490;SDS011;59307;50.060;9.150;2023-01-10T13:28:54;8.77;;;2.20;;
71490;SDS011;59307;50.060;9.150;2023-01-10T13:31:25;13.40;;;3.03;;
71490;SDS011;59307;50.060;9.150;2023-01-10T13:34:06;13.52;;;2.20;;
71490;SDS011;59307;50.060;9.150;2023-01-10T13:36:39;12.20;;;2.27;;
71490;SDS011;59307;50.060;9.150;2023-01-10T13:39:06;18.30;;;2.22;;
71490;SDS011;59307;50.060;9.150;2023-01-10T13:50:42;12.63;;;2.40;;
71490;SDS011;59307;50.060;9.150;2023-01-10T14:05:59;10.33;;;2.03;;
71490;SDS011;59307;50.060;9.150;2023-01-10T14:08:25;14.48;;;2.30;;
71490;SDS011;59307;50.060;9.150;2023-01-10T14:11:03;8.93;;;1.80;;
71490;SDS011;59307;50.060;9.150;2023-01-10T14:13:29;10.53;;;2.27;;
71490;SDS011;59307;50.060;9.150;2023-01-10T14:15:54;9.50;;;1.83;;
71490;SDS011;59307;50.060;9.150;2023-01-10T14:18:23;11.43;;;2.40;;
71490;SDS011;59307;50.060;9.150;2023-01-10T14:21:03;10.70;;;2.20;;
71490;SDS011;59307;50.060;9.150;2023-01-10T14:23:39;11.52;;;1.90;;
71490;SDS011;59307;50.060;9.150;2023-01-10T14:26:05;10.77;;;2.22;;
71490;SDS011;59307;50.060;9.150;2023-01-10T14:28:33;11.07;;;2.40;;
71490;SDS011;59307;50.060;9.150;2023-01-10T14:33:24;10.23;;;3.13;;
71490;SDS011;59307;50.060;9.150;2023-01-10T14:35:50;6.57;;;2.00;;
71490;SDS011;59307;50.060;9.150;2023-01-10T14:38:17;18.17;;;2.55;;
71490;SDS011;59307;50.060;9.150;2023-01-10T14:40:44;19.50;;;2.75;;
71490;SDS011;59307;50.060;9.150;2023-01-10T14:43:17;14.60;;;2.17;;
71490;SDS011;59307;50.060;9.150;2023-01-10T14:45:50;18.90;;;2.67;;
71490;SDS011;59307;50.060;9.150;2023-01-10T14:51:24;9.68;;;2.20;;
71490;SDS011;59307;50.060;9.150;2023-01-10T14:53:54;17.17;;;2.30;;
71490;SDS011;59307;50.060;9.150;2023-01-10T14:56:34;16.43;;;2.53;;
71490;SDS011;59307;50.060;9.150;2023-01-10T14:59:14;13.60;;;2.47;;
71490;SDS011;59307;50.060;9.150;2023-01-10T15:01:39;13.38;;;2.33;;
71490;SDS011;59307;50.060;9.150;2023-01-10T15:04:04;12.10;;;2.80;;
71490;SDS011;59307;50.060;9.150;2023-01-10T15:06:45;15.77;;;2.40;;
71490;SDS011;59307;50.060;9.150;2023-01-10T15:09:14;15.68;;;2.38;;
71490;SDS011;59307;50.060;9.150;2023-01-10T15:11:39;13.80;;;2.27;;
71490;SDS011;59307;50.060;9.150;2023-01-10T15:14:04;11.43;;;2.27;;
71490;SDS011;59307;50.060;9.150;2023-01-10T15:16:32;14.57;;;2.85;;
71490;SDS011;59307;50.060;9.150;2023-01-10T15:18:57;13.67;;;2.70;;
71490;SDS011;59307;50.060;9.150;2023-01-10T15:21:23;11.23;;;2.90;;
71490;SDS011;59307;50.060;9.150;2023-01-10T15:23:49;17.20;;;3.40;;
71490;SDS011;59307;50.060;9.150;2023-01-10T15:26:19;10.60;;;2.60;;
71490;SDS011;59307;50.060;9.150;2023-01-10T15:28:45;17.33;;;3.03;;
71490;SDS011;59307;50.060;9.150;2023-01-10T15:31:13;13.57;;;2.78;;
71490;SDS011;59307;50.060;9.150;2023-01-10T15:33:40;11.05;;;2.58;;
71490;SDS011;59307;50.060;9.150;2023-01-10T15:36:11;15.40;;;2.58;;
71490;SDS011;59307;50.060;9.150;2023-01-10T15:38:37;15.87;;;2.80;;
71490;SDS011;59307;50.060;9.150;2023-01-10T15:41:06;10.23;;;2.65;;
71490;SDS011;59307;50.060;9.150;2023-01-10T15:43:32;14.80;;;2.77;;
71490;SDS011;59307;50.060;9.150;2023-01-10T15:45:58;17.70;;;2.70;;
71490;SDS011;59307;50.060;9.150;2023-01-10T15:50:53;15.80;;;3.08;;
71490;SDS011;59307;50.060;9.150;2023-01-10T15:53:19;17.65;;;3.05;;
71490;SDS011;59307;50.060;9.150;2023-01-10T15:55:53;17.00;;;2.97;;
71490;SDS011;59307;50.060;9.150;2023-01-10T15:58:29;15.93;;;2.93;;
71490;SDS011;59307;50.060;9.150;2023-01-10T16:00:56;14.57;;;3.25;;
71490;SDS011;59307;50.060;9.150;2023-01-10T16:03:24;17.65;;;3.40;;
71490;SDS011;59307;50.060;9.150;2023-01-10T16:05:51;22.20;;;3.25;;
71490;SDS011;59307;50.060;9.150;2023-01-10T16:08:18;14.07;;;2.47;;
71490;SDS011;59307;50.060;9.150;2023-01-10T16:10:45;13.97;;;3.03;;
71490;SDS011;59307;50.060;9.150;2023-01-10T16:13:15;15.07;;;2.80;;
71490;SDS011;59307;50.060;9.150;2023-01-10T16:15:53;13.73;;;2.60;;
71490;SDS011;59307;50.060;9.150;2023-01-10T16:18:19;17.90;;;3.10;;
71490;SDS011;59307;50.060;9.150;2023-01-10T16:20:44;14.13;;;2.87;;
71490;SDS011;59307;50.060;9.150;2023-01-10T16:23:29;10.40;;;2.60;;
71490;SDS011;59307;50.060;9.150;2023-01-10T16:25:57;12.27;;;2.20;;
71490;SDS011;59307;50.060;9.150;2023-01-10T16:28:23;15.68;;;2.60;;
71490;SDS011;59307;50.060;9.150;2023-01-10T16:30:49;8.68;;;2.33;;
71490;SDS011;59307;50.060;9.150;2023-01-10T16:33:15;16.60;;;2.20;;
71490;SDS011;59307;50.060;9.150;2023-01-10T16:35:42;13.45;;;2.17;;
71490;SDS011;59307;50.060;9.150;2023-01-10T16:38:07;13.82;;;2.60;;
71490;SDS011;59307;50.060;9.150;2023-01-10T16:40:34;12.50;;;2.20;;
71490;SDS011;59307;50.060;9.150;2023-01-10T16:43:00;11.32;;;2.05;;
71490;SDS011;59307;50.060;9.150;2023-01-10T16:45:45;18.15;;;2.65;;
71490;SDS011;59307;50.060;9.150;2023-01-10T16:48:11;10.23;;;2.75;;